createdAt,value
2019-02-03T00:00:31.548Z,32.23
2019-02-03T00:05:32.905Z,10.23
2019-02-03T00:10:34.241Z,22.00
2019-02-03T00:15:35.491Z,20.87
2019-02-03T00:20:37.157Z,45.90
2019-02-03T00:25:38.393Z,9.80
2019-02-03T00:30:39.687Z,12.73
2019-02-03T00:35:40.928Z,9.50
2019-02-03T00:40:42.188Z,6.27
2019-02-03T00:45:43.721Z,10.67
2019-02-03T00:50:45.094Z,8.90
2019-02-03T00:55:46.345Z,10.73
2019-02-03T01:00:47.825Z,17.13
2019-02-03T01:05:49.282Z,14.47
2019-02-03T01:10:50.751Z,11.63
2019-02-03T01:15:51.991Z,15.03
2019-02-03T01:20:53.465Z,12.17
2019-02-03T01:25:54.712Z,21.77
2019-02-03T01:30:55.956Z,10.40
2019-02-03T01:35:57.189Z,11.90
2019-02-03T01:40:58.439Z,17.67
2019-02-03T01:45:59.750Z,14.33
2019-02-03T01:51:01.011Z,11.63
2019-02-03T01:56:02.376Z,11.00
2019-02-03T02:01:04.234Z,11.23
2019-02-03T02:06:05.487Z,15.73
2019-02-03T02:11:06.723Z,6.33
2019-02-03T02:16:07.972Z,13.17
2019-02-03T02:21:09.240Z,16.80
2019-02-03T02:26:10.488Z,17.43
2019-02-03T02:31:12.561Z,16.33
2019-02-03T02:36:13.903Z,21.50
2019-02-03T02:41:15.159Z,20.63
2019-02-03T02:46:16.393Z,9.30
2019-02-03T02:51:17.661Z,18.07
2019-02-03T02:56:18.924Z,14.33
2019-02-03T03:01:20.188Z,5.00
2019-02-03T03:06:21.534Z,2.57
2019-02-03T03:11:22.801Z,3.37
2019-02-03T03:16:24.070Z,8.80
2019-02-03T03:21:25.349Z,19.63
2019-02-03T03:26:26.591Z,13.90
2019-02-03T03:31:29.763Z,20.07
2019-02-03T03:36:31.019Z,2.90
2019-02-03T03:41:32.477Z,0.87
2019-02-03T03:46:33.730Z,14.33
2019-02-03T03:51:35.006Z,15.67
2019-02-03T03:56:36.266Z,22.77
2019-02-03T04:01:37.625Z,36.43
2019-02-03T04:06:39.077Z,17.40
2019-02-03T04:11:40.416Z,24.63
2019-02-03T04:16:41.698Z,18.97
2019-02-03T04:21:42.910Z,31.73
2019-02-03T04:26:44.164Z,15.87
2019-02-03T04:31:45.414Z,24.30
2019-02-03T04:36:46.650Z,25.60
2019-02-03T04:41:47.910Z,11.37
2019-02-03T04:46:49.172Z,12.27
2019-02-03T04:51:50.414Z,37.77
2019-02-03T04:56:51.646Z,18.87
2019-02-03T05:01:52.899Z,5.97
2019-02-03T05:06:54.146Z,9.80
2019-02-03T05:11:55.438Z,25.63
2019-02-03T05:16:56.671Z,28.30
2019-02-03T05:21:57.915Z,12.67
2019-02-03T05:26:59.178Z,10.70
2019-02-03T05:32:00.868Z,13.77
2019-02-03T05:37:02.110Z,11.63
2019-02-03T05:42:03.896Z,17.73
2019-02-03T05:47:05.145Z,6.10
2019-02-03T05:52:06.436Z,14.50
2019-02-03T05:57:07.661Z,3.50
2019-02-03T06:02:10.149Z,3.80
2019-02-03T06:07:11.529Z,12.03
2019-02-03T06:12:12.874Z,17.30
2019-02-03T06:17:16.466Z,11.73
2019-02-03T06:22:17.707Z,8.97
2019-02-03T06:27:18.954Z,4.17
2019-02-03T06:32:20.242Z,22.80
2019-02-03T06:37:21.482Z,15.27
2019-02-03T06:42:22.708Z,19.50
2019-02-03T06:47:24.476Z,26.73
2019-02-03T06:52:25.725Z,23.67
2019-02-03T06:57:28.962Z,16.83
2019-02-03T07:02:30.132Z,32.67
2019-02-03T07:07:34.480Z,15.87
2019-02-03T07:12:37.730Z,16.53
2019-02-03T07:17:38.983Z,4.03
2019-02-03T07:22:41.515Z,20.43
2019-02-03T07:27:43.036Z,11.03
2019-02-03T07:32:46.198Z,14.97
2019-02-03T07:37:47.429Z,4.77
2019-02-03T07:42:48.660Z,10.40
2019-02-03T07:47:52.694Z,12.20
2019-02-03T07:52:55.840Z,9.10
2019-02-03T07:57:57.180Z,14.50
2019-02-03T08:02:58.521Z,16.23
2019-02-03T08:07:59.753Z,14.57
2019-02-03T08:13:01.324Z,9.40
2019-02-03T08:18:03.576Z,15.97
2019-02-03T08:23:05.079Z,5.40
2019-02-03T08:28:06.335Z,3.50
2019-02-03T08:33:07.586Z,10.03
2019-02-03T08:38:08.832Z,20.13
2019-02-03T08:43:10.088Z,16.40
2019-02-03T08:48:11.355Z,27.67
2019-02-03T08:53:12.904Z,34.80
2019-02-03T08:58:14.146Z,14.03
2019-02-03T09:03:15.395Z,13.77
2019-02-03T09:08:16.622Z,6.90
2019-02-03T09:13:17.973Z,25.20
2019-02-03T09:18:20.032Z,20.00
2019-02-03T09:23:21.286Z,2.23
2019-02-03T09:28:22.553Z,9.57
2019-02-03T09:33:23.822Z,9.80
2019-02-03T09:38:25.068Z,8.80
2019-02-03T09:43:26.601Z,15.43
2019-02-03T09:48:27.878Z,21.07
2019-02-03T09:53:29.123Z,19.33
2019-02-03T09:58:30.396Z,20.77
2019-02-03T10:03:31.651Z,15.73
2019-02-03T10:08:40.479Z,28.27
2019-02-03T10:13:36.148Z,20.70
2019-02-03T10:18:37.463Z,24.90
2019-02-03T10:23:38.841Z,14.27
2019-02-03T10:28:40.136Z,28.97
2019-02-03T10:33:41.509Z,22.63
2019-02-03T10:38:42.779Z,15.43
2019-02-03T10:43:44.036Z,21.80
2019-02-03T10:48:45.305Z,32.57
2019-02-03T10:53:46.548Z,27.90
2019-02-03T10:58:47.937Z,12.93
2019-02-03T11:03:49.203Z,11.93
2019-02-03T11:08:50.674Z,37.30
2019-02-03T11:13:52.240Z,6.53
2019-02-03T11:18:53.510Z,23.03
2019-02-03T11:23:54.768Z,21.23
2019-02-03T11:28:56.349Z,42.97
2019-02-03T11:33:57.639Z,41.73
2019-02-03T11:38:58.953Z,17.37
2019-02-03T11:44:00.211Z,24.67
2019-02-03T11:49:01.761Z,21.37
2019-02-03T11:54:03.557Z,24.43
2019-02-03T11:59:04.925Z,9.20
2019-02-03T12:04:06.229Z,28.47
2019-02-03T12:09:07.946Z,27.23
2019-02-03T12:14:09.216Z,30.50
2019-02-03T12:19:10.490Z,37.63
2019-02-03T12:24:11.768Z,15.80
2019-02-03T12:29:13.039Z,15.50
2019-02-03T12:34:14.362Z,7.17
2019-02-03T12:39:15.611Z,7.73
2019-02-03T12:44:17.274Z,17.97
2019-02-03T12:49:18.551Z,26.23
2019-02-03T12:54:19.814Z,16.87
2019-02-03T12:59:21.094Z,10.43
2019-02-03T13:04:22.388Z,10.37
2019-02-03T13:09:23.646Z,18.50
2019-02-03T13:14:24.903Z,9.83
2019-02-03T13:19:26.155Z,14.97
2019-02-03T13:24:27.424Z,20.30
2019-02-03T13:29:28.708Z,12.30
2019-02-03T13:34:30.365Z,12.03
2019-02-03T13:39:31.839Z,9.90
2019-02-03T13:44:33.089Z,12.03
2019-02-03T13:49:34.373Z,11.77
2019-02-03T13:54:35.637Z,8.50
2019-02-03T13:59:38.946Z,12.33
2019-02-03T14:04:40.213Z,8.60
2019-02-03T14:09:41.473Z,2.40
2019-02-03T14:14:42.754Z,2.00
2019-02-03T14:19:44.017Z,5.43
2019-02-03T14:24:45.270Z,17.50
2019-02-03T14:29:46.940Z,10.07
2019-02-03T14:34:48.248Z,1.23
2019-02-03T14:39:49.538Z,21.17
2019-02-03T14:44:50.894Z,17.23
2019-02-03T14:49:52.393Z,8.43
2019-02-03T14:54:53.633Z,4.67
2019-02-03T14:59:55.831Z,5.93
2019-02-03T15:04:57.130Z,9.10
2019-02-03T15:09:58.372Z,9.80
2019-02-03T15:14:59.652Z,1.83
2019-02-03T15:20:01.126Z,4.63
2019-02-03T15:25:06.293Z,5.80
2019-02-03T15:30:23.997Z,4.17
2019-02-03T15:35:25.473Z,8.63
2019-02-03T15:40:27.050Z,16.83
2019-02-03T15:45:28.415Z,4.73
2019-02-03T15:50:30.193Z,3.63
2019-02-03T15:55:36.260Z,8.43
2019-02-03T16:00:42.329Z,8.70
2019-02-03T16:05:43.666Z,3.97
2019-02-03T16:10:44.943Z,8.70
2019-02-03T16:15:46.367Z,1.60
2019-02-03T16:20:47.660Z,4.33
2019-02-03T16:25:48.903Z,1.20
2019-02-03T16:30:50.204Z,2.63
2019-02-03T16:35:51.498Z,0.47
2019-02-03T16:40:52.827Z,0.90
2019-02-03T16:45:54.196Z,0.40
2019-02-03T16:50:55.519Z,0.40
2019-02-03T16:55:56.760Z,0.40
2019-02-03T17:00:58.161Z,1.33
2019-02-03T17:05:59.401Z,0.50
2019-02-03T17:11:00.749Z,2.30
2019-02-03T17:16:02.931Z,2.43
2019-02-03T17:21:04.164Z,0.97
2019-02-03T17:26:05.837Z,1.10
2019-02-03T17:31:07.166Z,0.40
2019-02-03T17:36:08.714Z,0.40
2019-02-03T17:41:09.966Z,2.40
2019-02-03T17:46:11.515Z,0.40
2019-02-03T17:51:12.966Z,0.37
2019-02-03T17:56:14.213Z,1.50
2019-02-03T18:01:15.580Z,0.40
2019-02-03T18:06:17.087Z,0.53
2019-02-03T18:11:18.479Z,0.40
2019-02-03T18:16:19.779Z,0.37
2019-02-03T18:21:21.048Z,0.40
2019-02-03T18:26:22.327Z,1.63
2019-02-03T18:31:23.792Z,0.40
2019-02-03T18:36:25.099Z,0.50
2019-02-03T18:41:26.465Z,0.40
2019-02-03T18:46:27.737Z,0.40
2019-02-03T18:51:28.991Z,0.30
2019-02-03T18:56:30.664Z,0.40
2019-02-03T19:01:31.932Z,0.53
2019-02-03T19:06:33.204Z,0.50
2019-02-03T19:11:34.467Z,0.40
2019-02-03T19:16:35.775Z,3.80
2019-02-03T19:21:37.129Z,0.50
2019-02-03T19:26:38.381Z,0.77
2019-02-03T19:31:39.661Z,0.30
2019-02-03T19:36:40.927Z,1.63
2019-02-03T19:41:42.192Z,1.27
2019-02-03T19:46:43.472Z,0.40
2019-02-03T19:51:44.759Z,2.80
2019-02-03T19:56:46.067Z,0.33
2019-02-03T20:01:47.367Z,1.60
2019-02-03T20:06:48.640Z,0.40
2019-02-03T20:11:49.934Z,0.40
2019-02-03T20:16:51.266Z,0.30
2019-02-03T20:21:52.539Z,0.30
2019-02-03T20:26:54.001Z,7.20
2019-02-03T20:31:55.349Z,0.40
2019-02-03T20:36:56.647Z,0.30
2019-02-03T20:41:57.919Z,0.40
2019-02-03T20:46:59.235Z,0.30
2019-02-03T20:52:01.233Z,0.40
2019-02-03T20:57:02.840Z,1.17
2019-02-03T21:02:04.301Z,0.30
2019-02-03T21:07:05.778Z,0.40
2019-02-03T21:12:07.173Z,0.40
2019-02-03T21:17:08.430Z,0.30
2019-02-03T21:22:09.906Z,0.40
2019-02-03T21:27:11.161Z,0.30
2019-02-03T21:32:12.422Z,0.93
2019-02-03T21:37:13.828Z,0.87
2019-02-03T21:42:15.160Z,0.30
2019-02-03T21:47:16.427Z,0.40
2019-02-03T21:52:17.719Z,0.30
2019-02-03T21:57:19.277Z,2.77
2019-02-03T22:02:20.515Z,0.40
2019-02-03T22:07:21.766Z,1.47
2019-02-03T22:12:23.183Z,0.70
2019-02-03T22:17:24.444Z,0.67
2019-02-03T22:22:26.099Z,0.30
2019-02-03T22:27:27.359Z,0.40
2019-02-03T22:32:28.634Z,0.40
2019-02-03T22:37:29.912Z,3.23
2019-02-03T22:42:31.144Z,0.30
2019-02-03T22:47:32.899Z,1.43
2019-02-03T22:52:34.377Z,0.40
2019-02-03T22:57:35.634Z,0.40
2019-02-03T23:02:36.974Z,1.10
2019-02-03T23:07:38.259Z,0.73
2019-02-03T23:12:40.032Z,0.80
2019-02-03T23:17:41.279Z,1.47
2019-02-03T23:22:42.531Z,2.00
2019-02-03T23:27:43.794Z,4.20
2019-02-03T23:32:45.177Z,1.33
2019-02-03T23:37:46.975Z,0.40
2019-02-03T23:42:48.374Z,0.40
2019-02-03T23:47:49.640Z,1.13
2019-02-03T23:52:50.889Z,0.33
2019-02-03T23:57:52.131Z,0.30
